sensor_id;sensor_type;location;lat;lon;timestamp;temperature;humidity
4050;DHT22;2039;50.894;6.888;2023-08-07T00:00:30;14.00;99.90
4050;DHT22;2039;50.894;6.888;2023-08-07T00:02:55;14.00;99.90
4050;DHT22;2039;50.894;6.888;2023-08-07T00:05:21;14.00;99.90
4050;DHT22;2039;50.894;6.888;2023-08-07T00:07:47;13.90;99.90
4050;DHT22;2039;50.894;6.888;2023-08-07T00:10:13;14.00;99.90
4050;DHT22;2039;50.894;6.888;2023-08-07T00:12:39;13.90;99.90
4050;DHT22;2039;50.894;6.888;2023-08-07T00:15:06;13.90;99.90
4050;DHT22;2039;50.894;6.888;2023-08-07T00:17:32;13.90;99.90
4050;DHT22;2039;50.894;6.888;2023-08-07T00:19:57;13.90;99.90
4050;DHT22;2039;50.894;6.888;2023-08-07T00:22:23;13.90;99.90
4050;DHT22;2039;50.894;6.888;2023-08-07T00:24:50;13.90;99.90
4050;DHT22;2039;50.894;6.888;2023-08-07T00:27:16;13.80;99.90
4050;DHT22;2039;50.894;6.888;2023-08-07T00:29:41;13.90;99.90
4050;DHT22;2039;50.894;6.888;2023-08-07T00:32:07;13.80;99.90
4050;DHT22;2039;50.894;6.888;2023-08-07T00:34:34;13.80;99.90
4050;DHT22;2039;50.894;6.888;2023-08-07T00:37:00;13.80;99.90
4050;DHT22;2039;50.894;6.888;2023-08-07T00:39:25;13.80;99.90
4050;DHT22;2039;50.894;6.888;2023-08-07T00:41:51;13.80;99.90
4050;DHT22;2039;50.894;6.888;2023-08-07T00:44:17;13.80;99.90
4050;DHT22;2039;50.894;6.888;2023-08-07T00:46:43;13.70;99.90
4050;DHT22;2039;50.894;6.888;2023-08-07T00:49:10;13.70;99.90
4050;DHT22;2039;50.894;6.888;2023-08-07T00:51:36;13.70;99.90
4050;DHT22;2039;50.894;6.888;2023-08-07T00:54:03;13.80;99.90
4050;DHT22;2039;50.894;6.888;2023-08-07T00:56:30;13.70;99.90
4050;DHT22;2039;50.894;6.888;2023-08-07T00:58:58;13.70;99.90
4050;DHT22;2039;50.894;6.888;2023-08-07T01:01:24;13.60;99.90
4050;DHT22;2039;50.894;6.888;2023-08-07T01:03:50;13.70;99.90
4050;DHT22;2039;50.894;6.888;2023-08-07T01:06:15;13.60;99.90
4050;DHT22;2039;50.894;6.888;2023-08-07T01:08:41;13.70;99.90
4050;DHT22;2039;50.894;6.888;2023-08-07T01:11:22;13.70;99.90
4050;DHT22;2039;50.894;6.888;2023-08-07T01:16:41;13.60;99.90
4050;DHT22;2039;50.894;6.888;2023-08-07T01:19:15;13.60;99.90
4050;DHT22;2039;50.894;6.888;2023-08-07T01:21:48;13.60;99.90
4050;DHT22;2039;50.894;6.888;2023-08-07T01:24:13;13.60;99.90
4050;DHT22;2039;50.894;6.888;2023-08-07T01:26:40;13.60;99.90
4050;DHT22;2039;50.894;6.888;2023-08-07T01:29:22;13.70;99.90
4050;DHT22;2039;50.894;6.888;2023-08-07T01:31:53;13.70;99.90
4050;DHT22;2039;50.894;6.888;2023-08-07T01:34:21;13.70;99.90
4050;DHT22;2039;50.894;6.888;2023-08-07T01:36:49;13.70;99.90
4050;DHT22;2039;50.894;6.888;2023-08-07T01:39:17;13.80;99.90
4050;DHT22;2039;50.894;6.888;2023-08-07T01:41:43;13.80;99.90
4050;DHT22;2039;50.894;6.888;2023-08-07T01:44:09;13.80;99.90
4050;DHT22;2039;50.894;6.888;2023-08-07T01:46:35;13.80;99.90
4050;DHT22;2039;50.894;6.888;2023-08-07T01:49:00;13.70;99.90
4050;DHT22;2039;50.894;6.888;2023-08-07T01:51:29;13.70;99.90
4050;DHT22;2039;50.894;6.888;2023-08-07T01:53:54;13.70;99.90
4050;DHT22;2039;50.894;6.888;2023-08-07T01:56:20;13.70;99.90
4050;DHT22;2039;50.894;6.888;2023-08-07T01:58:45;13.80;99.90
4050;DHT22;2039;50.894;6.888;2023-08-07T02:01:11;13.80;99.90
4050;DHT22;2039;50.894;6.888;2023-08-07T02:03:37;13.80;99.90
4050;DHT22;2039;50.894;6.888;2023-08-07T02:06:02;13.80;99.90
4050;DHT22;2039;50.894;6.888;2023-08-07T02:08:29;13.80;99.90
4050;DHT22;2039;50.894;6.888;2023-08-07T02:10:55;13.80;99.90
4050;DHT22;2039;50.894;6.888;2023-08-07T02:13:21;13.80;99.90
4050;DHT22;2039;50.894;6.888;2023-08-07T02:15:46;13.80;99.90
4050;DHT22;2039;50.894;6.888;2023-08-07T02:18:12;13.90;99.90
4050;DHT22;2039;50.894;6.888;2023-08-07T02:20:37;13.90;99.90
4050;DHT22;2039;50.894;6.888;2023-08-07T02:23:03;13.90;99.90
4050;DHT22;2039;50.894;6.888;2023-08-07T02:25:29;13.80;99.90
4050;DHT22;2039;50.894;6.888;2023-08-07T02:27:54;13.90;99.90
4050;DHT22;2039;50.894;6.888;2023-08-07T02:30:20;13.90;99.90
4050;DHT22;2039;50.894;6.888;2023-08-07T02:32:46;13.90;99.90
4050;DHT22;2039;50.894;6.888;2023-08-07T02:35:12;13.90;99.90
4050;DHT22;2039;50.894;6.888;2023-08-07T02:37:37;13.80;99.90
4050;DHT22;2039;50.894;6.888;2023-08-07T02:40:03;13.80;99.90
4050;DHT22;2039;50.894;6.888;2023-08-07T02:42:29;13.90;99.90
4050;DHT22;2039;50.894;6.888;2023-08-07T02:44:55;13.90;99.90
4050;DHT22;2039;50.894;6.888;2023-08-07T02:47:21;13.90;99.90
4050;DHT22;2039;50.894;6.888;2023-08-07T02:49:46;13.90;99.90
4050;DHT22;2039;50.894;6.888;2023-08-07T02:52:12;13.80;99.90
4050;DHT22;2039;50.894;6.888;2023-08-07T02:54:38;13.80;99.90
4050;DHT22;2039;50.894;6.888;2023-08-07T02:57:04;13.80;99.90
4050;DHT22;2039;50.894;6.888;2023-08-07T02:59:29;13.80;99.90
4050;DHT22;2039;50.894;6.888;2023-08-07T03:01:56;13.80;99.90
4050;DHT22;2039;50.894;6.888;2023-08-07T03:04:21;13.80;99.90
4050;DHT22;2039;50.894;6.888;2023-08-07T03:06:48;13.80;99.90
4050;DHT22;2039;50.894;6.888;2023-08-07T03:09:14;13.80;99.90
4050;DHT22;2039;50.894;6.888;2023-08-07T03:11:39;13.70;99.90
4050;DHT22;2039;50.894;6.888;2023-08-07T03:14:05;13.70;99.90
4050;DHT22;2039;50.894;6.888;2023-08-07T03:16:31;13.70;99.90
4050;DHT22;2039;50.894;6.888;2023-08-07T03:18:56;13.70;99.90
4050;DHT22;2039;50.894;6.888;2023-08-07T03:21:22;13.70;99.90
4050;DHT22;2039;50.894;6.888;2023-08-07T03:23:48;13.70;99.90
4050;DHT22;2039;50.894;6.888;2023-08-07T03:26:13;13.70;99.90
4050;DHT22;2039;50.894;6.888;2023-08-07T03:28:39;13.60;99.90
4050;DHT22;2039;50.894;6.888;2023-08-07T03:31:05;13.60;99.90
4050;DHT22;2039;50.894;6.888;2023-08-07T03:33:31;13.50;99.90
4050;DHT22;2039;50.894;6.888;2023-08-07T03:35:57;13.50;99.90
4050;DHT22;2039;50.894;6.888;2023-08-07T03:38:22;13.50;99.90
4050;DHT22;2039;50.894;6.888;2023-08-07T03:40:48;13.50;99.90
4050;DHT22;2039;50.894;6.888;2023-08-07T03:43:14;13.50;99.90
4050;DHT22;2039;50.894;6.888;2023-08-07T03:45:39;13.50;99.90
4050;DHT22;2039;50.894;6.888;2023-08-07T03:48:06;13.50;99.90
4050;DHT22;2039;50.894;6.888;2023-08-07T03:50:31;13.50;99.90
4050;DHT22;2039;50.894;6.888;2023-08-07T03:53:00;13.40;99.90
4050;DHT22;2039;50.894;6.888;2023-08-07T03:55:26;13.50;99.90
4050;DHT22;2039;50.894;6.888;2023-08-07T03:57:52;13.50;99.90
4050;DHT22;2039;50.894;6.888;2023-08-07T04:00:17;13.50;99.90
4050;DHT22;2039;50.894;6.888;2023-08-07T04:02:44;13.40;99.90
4050;DHT22;2039;50.894;6.888;2023-08-07T04:05:10;13.40;99.90
4050;DHT22;2039;50.894;6.888;2023-08-07T04:07:36;13.40;99.90
4050;DHT22;2039;50.894;6.888;2023-08-07T04:10:01;13.40;99.90
4050;DHT22;2039;50.894;6.888;2023-08-07T04:12:27;13.40;99.90
4050;DHT22;2039;50.894;6.888;2023-08-07T04:14:53;13.40;99.90
4050;DHT22;2039;50.894;6.888;2023-08-07T04:17:19;13.40;99.90
4050;DHT22;2039;50.894;6.888;2023-08-07T04:19:44;13.40;99.90
4050;DHT22;2039;50.894;6.888;2023-08-07T04:22:10;13.30;99.90
4050;DHT22;2039;50.894;6.888;2023-08-07T04:24:36;13.40;99.90
4050;DHT22;2039;50.894;6.888;2023-08-07T04:27:01;13.40;99.90
4050;DHT22;2039;50.894;6.888;2023-08-07T04:29:27;13.30;99.90
4050;DHT22;2039;50.894;6.888;2023-08-07T04:31:52;13.30;99.90
4050;DHT22;2039;50.894;6.888;2023-08-07T04:34:18;13.40;99.90
4050;DHT22;2039;50.894;6.888;2023-08-07T04:36:44;13.40;99.90
4050;DHT22;2039;50.894;6.888;2023-08-07T04:39:10;13.40;99.90
4050;DHT22;2039;50.894;6.888;2023-08-07T04:41:37;13.30;99.90
4050;DHT22;2039;50.894;6.888;2023-08-07T04:44:02;13.40;99.90
4050;DHT22;2039;50.894;6.888;2023-08-07T04:46:28;13.40;99.90
4050;DHT22;2039;50.894;6.888;2023-08-07T04:48:54;13.40;99.90
4050;DHT22;2039;50.894;6.888;2023-08-07T04:51:20;13.40;99.90
4050;DHT22;2039;50.894;6.888;2023-08-07T04:53:45;13.30;99.90
4050;DHT22;2039;50.894;6.888;2023-08-07T04:56:11;13.30;99.90
4050;DHT22;2039;50.894;6.888;2023-08-07T04:58:37;13.30;99.90
4050;DHT22;2039;50.894;6.888;2023-08-07T05:01:08;13.40;99.90
4050;DHT22;2039;50.894;6.888;2023-08-07T05:03:34;13.40;99.90
4050;DHT22;2039;50.894;6.888;2023-08-07T05:06:01;13.40;99.90
4050;DHT22;2039;50.894;6.888;2023-08-07T05:08:26;13.40;99.90
4050;DHT22;2039;50.894;6.888;2023-08-07T05:10:55;13.40;99.90
4050;DHT22;2039;50.894;6.888;2023-08-07T05:13:21;13.40;99.90
4050;DHT22;2039;50.894;6.888;2023-08-07T05:15:47;13.40;99.90
4050;DHT22;2039;50.894;6.888;2023-08-07T05:18:14;13.50;99.90
4050;DHT22;2039;50.894;6.888;2023-08-07T05:20:40;13.40;99.90
4050;DHT22;2039;50.894;6.888;2023-08-07T05:23:06;13.50;99.90
4050;DHT22;2039;50.894;6.888;2023-08-07T05:25:32;13.50;99.90
4050;DHT22;2039;50.894;6.888;2023-08-07T05:27:58;13.50;99.90
4050;DHT22;2039;50.894;6.888;2023-08-07T05:30:23;13.50;99.90
4050;DHT22;2039;50.894;6.888;2023-08-07T05:32:49;13.60;99.90
4050;DHT22;2039;50.894;6.888;2023-08-07T05:35:15;13.60;99.90
4050;DHT22;2039;50.894;6.888;2023-08-07T05:37:40;13.60;99.90
4050;DHT22;2039;50.894;6.888;2023-08-07T05:40:06;13.60;99.90
4050;DHT22;2039;50.894;6.888;2023-08-07T05:42:32;13.70;99.90
4050;DHT22;2039;50.894;6.888;2023-08-07T05:44:58;13.70;99.90
4050;DHT22;2039;50.894;6.888;2023-08-07T05:47:24;13.70;99.90
4050;DHT22;2039;50.894;6.888;2023-08-07T05:49:50;13.70;99.90
4050;DHT22;2039;50.894;6.888;2023-08-07T05:52:17;13.70;99.90
4050;DHT22;2039;50.894;6.888;2023-08-07T05:54:43;13.70;99.90
4050;DHT22;2039;50.894;6.888;2023-08-07T05:57:09;13.70;99.90
4050;DHT22;2039;50.894;6.888;2023-08-07T05:59:34;13.70;99.90
4050;DHT22;2039;50.894;6.888;2023-08-07T06:02:01;13.70;99.90
4050;DHT22;2039;50.894;6.888;2023-08-07T06:04:27;13.60;99.90
4050;DHT22;2039;50.894;6.888;2023-08-07T06:06:54;13.60;99.90
4050;DHT22;2039;50.894;6.888;2023-08-07T06:09:20;13.70;99.90
4050;DHT22;2039;50.894;6.888;2023-08-07T06:11:47;13.70;99.90
4050;DHT22;2039;50.894;6.888;2023-08-07T06:14:13;13.70;99.90
4050;DHT22;2039;50.894;6.888;2023-08-07T06:16:41;13.60;99.90
4050;DHT22;2039;50.894;6.888;2023-08-07T06:19:07;13.60;99.90
4050;DHT22;2039;50.894;6.888;2023-08-07T06:21:34;13.60;99.90
4050;DHT22;2039;50.894;6.888;2023-08-07T06:23:59;13.60;99.90
4050;DHT22;2039;50.894;6.888;2023-08-07T06:26:25;13.60;99.90
4050;DHT22;2039;50.894;6.888;2023-08-07T06:28:51;13.60;99.90
4050;DHT22;2039;50.894;6.888;2023-08-07T06:31:17;13.60;99.90
4050;DHT22;2039;50.894;6.888;2023-08-07T06:33:43;13.50;99.90
4050;DHT22;2039;50.894;6.888;2023-08-07T06:36:09;13.50;99.90
4050;DHT22;2039;50.894;6.888;2023-08-07T06:38:37;13.50;99.90
4050;DHT22;2039;50.894;6.888;2023-08-07T06:41:05;13.40;99.90
4050;DHT22;2039;50.894;6.888;2023-08-07T06:43:31;13.40;99.90
4050;DHT22;2039;50.894;6.888;2023-08-07T06:45:57;13.40;99.90
4050;DHT22;2039;50.894;6.888;2023-08-07T06:48:22;13.40;99.90
4050;DHT22;2039;50.894;6.888;2023-08-07T06:50:49;13.40;99.90
4050;DHT22;2039;50.894;6.888;2023-08-07T06:53:15;13.40;99.90
4050;DHT22;2039;50.894;6.888;2023-08-07T06:55:42;13.40;99.90
4050;DHT22;2039;50.894;6.888;2023-08-07T06:58:07;13.40;99.90
4050;DHT22;2039;50.894;6.888;2023-08-07T07:00:33;13.40;99.90
4050;DHT22;2039;50.894;6.888;2023-08-07T07:03:01;13.40;99.90
4050;DHT22;2039;50.894;6.888;2023-08-07T07:05:26;13.40;99.90
4050;DHT22;2039;50.894;6.888;2023-08-07T07:07:52;13.40;99.90
4050;DHT22;2039;50.894;6.888;2023-08-07T07:10:20;13.40;99.90
4050;DHT22;2039;50.894;6.888;2023-08-07T07:12:45;13.50;99.90
4050;DHT22;2039;50.894;6.888;2023-08-07T07:15:11;13.40;99.90
4050;DHT22;2039;50.894;6.888;2023-08-07T07:17:37;13.40;99.90
4050;DHT22;2039;50.894;6.888;2023-08-07T07:20:03;13.40;99.90
4050;DHT22;2039;50.894;6.888;2023-08-07T07:22:29;13.40;99.90
4050;DHT22;2039;50.894;6.888;2023-08-07T07:24:55;13.40;99.90
4050;DHT22;2039;50.894;6.888;2023-08-07T07:27:21;13.40;99.90
4050;DHT22;2039;50.894;6.888;2023-08-07T07:29:48;13.40;99.90
4050;DHT22;2039;50.894;6.888;2023-08-07T07:32:14;13.40;99.90
4050;DHT22;2039;50.894;6.888;2023-08-07T07:34:39;13.40;99.90
4050;DHT22;2039;50.894;6.888;2023-08-07T07:37:05;13.40;99.90
4050;DHT22;2039;50.894;6.888;2023-08-07T07:39:31;13.40;99.90
4050;DHT22;2039;50.894;6.888;2023-08-07T07:41:57;13.50;99.90
4050;DHT22;2039;50.894;6.888;2023-08-07T07:44:22;13.50;99.90
4050;DHT22;2039;50.894;6.888;2023-08-07T07:46:48;13.50;99.90
4050;DHT22;2039;50.894;6.888;2023-08-07T07:49:14;13.60;99.90
4050;DHT22;2039;50.894;6.888;2023-08-07T07:51:40;13.70;99.90
4050;DHT22;2039;50.894;6.888;2023-08-07T07:54:06;13.70;99.90
4050;DHT22;2039;50.894;6.888;2023-08-07T07:56:31;13.80;99.90
4050;DHT22;2039;50.894;6.888;2023-08-07T07:58:57;13.80;99.90
4050;DHT22;2039;50.894;6.888;2023-08-07T08:01:23;13.80;99.90
4050;DHT22;2039;50.894;6.888;2023-08-07T08:03:49;13.90;99.90
4050;DHT22;2039;50.894;6.888;2023-08-07T08:06:14;13.90;99.90
4050;DHT22;2039;50.894;6.888;2023-08-07T08:08:42;13.90;99.90
4050;DHT22;2039;50.894;6.888;2023-08-07T08:11:08;14.00;99.90
4050;DHT22;2039;50.894;6.888;2023-08-07T08:13:34;14.00;99.90
4050;DHT22;2039;50.894;6.888;2023-08-07T08:16:04;14.10;99.90
4050;DHT22;2039;50.894;6.888;2023-08-07T08:18:29;14.20;99.90
4050;DHT22;2039;50.894;6.888;2023-08-07T08:20:55;14.30;99.90
4050;DHT22;2039;50.894;6.888;2023-08-07T08:23:21;14.50;99.90
4050;DHT22;2039;50.894;6.888;2023-08-07T08:25:48;14.50;99.90
4050;DHT22;2039;50.894;6.888;2023-08-07T08:28:14;14.50;99.90
4050;DHT22;2039;50.894;6.888;2023-08-07T08:30:39;14.60;99.90
4050;DHT22;2039;50.894;6.888;2023-08-07T08:33:05;14.60;99.90
4050;DHT22;2039;50.894;6.888;2023-08-07T08:35:31;14.70;99.90
4050;DHT22;2039;50.894;6.888;2023-08-07T08:37:57;14.90;99.90
4050;DHT22;2039;50.894;6.888;2023-08-07T08:40:24;14.90;99.90
4050;DHT22;2039;50.894;6.888;2023-08-07T08:42:50;14.90;99.90
4050;DHT22;2039;50.894;6.888;2023-08-07T08:45:17;14.80;99.90
4050;DHT22;2039;50.894;6.888;2023-08-07T08:47:45;14.80;99.90
4050;DHT22;2039;50.894;6.888;2023-08-07T08:50:13;14.80;99.90
4050;DHT22;2039;50.894;6.888;2023-08-07T08:52:44;14.80;99.90
4050;DHT22;2039;50.894;6.888;2023-08-07T08:55:14;14.80;99.90
4050;DHT22;2039;50.894;6.888;2023-08-07T08:57:40;14.90;99.90
4050;DHT22;2039;50.894;6.888;2023-08-07T09:00:08;15.00;99.90
4050;DHT22;2039;50.894;6.888;2023-08-07T09:02:45;15.10;99.90
4050;DHT22;2039;50.894;6.888;2023-08-07T09:05:11;15.20;99.90
4050;DHT22;2039;50.894;6.888;2023-08-07T09:07:37;15.30;99.90
4050;DHT22;2039;50.894;6.888;2023-08-07T09:10:04;15.40;99.90
4050;DHT22;2039;50.894;6.888;2023-08-07T09:12:32;15.50;99.90
4050;DHT22;2039;50.894;6.888;2023-08-07T09:15:02;15.70;99.90
4050;DHT22;2039;50.894;6.888;2023-08-07T09:17:31;15.90;99.90
4050;DHT22;2039;50.894;6.888;2023-08-07T09:19:59;16.00;99.90
4050;DHT22;2039;50.894;6.888;2023-08-07T09:22:25;16.00;99.90
4050;DHT22;2039;50.894;6.888;2023-08-07T09:24:50;16.00;99.90
4050;DHT22;2039;50.894;6.888;2023-08-07T09:27:16;16.00;99.90
4050;DHT22;2039;50.894;6.888;2023-08-07T09:29:43;16.00;99.90
4050;DHT22;2039;50.894;6.888;2023-08-07T09:32:12;15.90;99.90
4050;DHT22;2039;50.894;6.888;2023-08-07T09:34:39;16.00;99.90
4050;DHT22;2039;50.894;6.888;2023-08-07T09:37:10;15.90;99.90
4050;DHT22;2039;50.894;6.888;2023-08-07T09:39:37;15.90;99.90
4050;DHT22;2039;50.894;6.888;2023-08-07T09:42:16;15.90;99.90
4050;DHT22;2039;50.894;6.888;2023-08-07T09:44:42;15.80;99.90
4050;DHT22;2039;50.894;6.888;2023-08-07T09:47:18;15.90;99.90
4050;DHT22;2039;50.894;6.888;2023-08-07T09:49:45;15.90;99.90
4050;DHT22;2039;50.894;6.888;2023-08-07T09:52:13;16.00;99.90
4050;DHT22;2039;50.894;6.888;2023-08-07T09:54:40;16.00;99.90
4050;DHT22;2039;50.894;6.888;2023-08-07T09:57:06;16.10;99.90
4050;DHT22;2039;50.894;6.888;2023-08-07T09:59:35;16.20;99.90
4050;DHT22;2039;50.894;6.888;2023-08-07T10:02:03;16.30;99.90
4050;DHT22;2039;50.894;6.888;2023-08-07T10:04:30;16.50;99.90
4050;DHT22;2039;50.894;6.888;2023-08-07T10:06:56;16.70;99.90
4050;DHT22;2039;50.894;6.888;2023-08-07T10:09:22;16.70;99.90
4050;DHT22;2039;50.894;6.888;2023-08-07T10:11:51;16.80;99.90
4050;DHT22;2039;50.894;6.888;2023-08-07T10:14:18;16.90;99.90
4050;DHT22;2039;50.894;6.888;2023-08-07T10:16:45;17.00;99.90
4050;DHT22;2039;50.894;6.888;2023-08-07T10:19:11;16.90;99.90
4050;DHT22;2039;50.894;6.888;2023-08-07T10:21:39;17.00;99.90
4050;DHT22;2039;50.894;6.888;2023-08-07T10:24:07;17.00;99.90
4050;DHT22;2039;50.894;6.888;2023-08-07T10:26:35;17.10;99.90
4050;DHT22;2039;50.894;6.888;2023-08-07T10:29:02;17.30;99.90
4050;DHT22;2039;50.894;6.888;2023-08-07T10:31:30;17.50;99.90
4050;DHT22;2039;50.894;6.888;2023-08-07T10:33:57;17.50;99.90
4050;DHT22;2039;50.894;6.888;2023-08-07T10:36:23;17.70;99.90
4050;DHT22;2039;50.894;6.888;2023-08-07T10:39:06;17.70;99.90
4050;DHT22;2039;50.894;6.888;2023-08-07T10:41:42;17.80;99.90
4050;DHT22;2039;50.894;6.888;2023-08-07T10:44:18;18.00;99.90
4050;DHT22;2039;50.894;6.888;2023-08-07T10:46:52;18.20;99.90
4050;DHT22;2039;50.894;6.888;2023-08-07T10:49:31;18.30;91.30
4050;DHT22;2039;50.894;6.888;2023-08-07T10:52:12;18.10;17.70
4050;DHT22;2039;50.894;6.888;2023-08-07T10:54:58;18.00;4.50
4050;DHT22;2039;50.894;6.888;2023-08-07T10:57:31;18.10;4.80
4050;DHT22;2039;50.894;6.888;2023-08-07T11:02:29;18.00;1.00
4050;DHT22;2039;50.894;6.888;2023-08-07T11:04:55;18.00;17.50
4050;DHT22;2039;50.894;6.888;2023-08-07T11:07:28;18.10;32.50
4050;DHT22;2039;50.894;6.888;2023-08-07T11:09:55;18.00;4.80
4050;DHT22;2039;50.894;6.888;2023-08-07T11:12:24;18.20;27.90
4050;DHT22;2039;50.894;6.888;2023-08-07T11:14:50;18.60;33.30
4050;DHT22;2039;50.894;6.888;2023-08-07T11:17:18;19.00;6.60
4050;DHT22;2039;50.894;6.888;2023-08-07T11:19:46;19.20;2.20
4050;DHT22;2039;50.894;6.888;2023-08-07T11:22:12;19.30;1.00
4050;DHT22;2039;50.894;6.888;2023-08-07T11:24:38;19.30;1.00
4050;DHT22;2039;50.894;6.888;2023-08-07T11:27:04;19.30;1.00
4050;DHT22;2039;50.894;6.888;2023-08-07T11:29:30;19.50;1.00
4050;DHT22;2039;50.894;6.888;2023-08-07T11:31:56;19.70;1.00
4050;DHT22;2039;50.894;6.888;2023-08-07T11:34:22;19.80;1.00
4050;DHT22;2039;50.894;6.888;2023-08-07T11:36:48;20.20;1.00
4050;DHT22;2039;50.894;6.888;2023-08-07T11:39:14;20.40;1.00
4050;DHT22;2039;50.894;6.888;2023-08-07T11:41:39;20.60;1.00
4050;DHT22;2039;50.894;6.888;2023-08-07T11:44:08;20.70;1.00
4050;DHT22;2039;50.894;6.888;2023-08-07T11:46:34;20.80;1.00
4050;DHT22;2039;50.894;6.888;2023-08-07T11:48:59;21.10;1.00
4050;DHT22;2039;50.894;6.888;2023-08-07T11:51:26;21.30;1.00
4050;DHT22;2039;50.894;6.888;2023-08-07T11:53:52;21.50;1.00
4050;DHT22;2039;50.894;6.888;2023-08-07T11:56:22;21.50;1.00
4050;DHT22;2039;50.894;6.888;2023-08-07T11:58:48;21.30;1.00
4050;DHT22;2039;50.894;6.888;2023-08-07T12:01:15;21.00;1.00
4050;DHT22;2039;50.894;6.888;2023-08-07T12:06:15;21.10;1.00
4050;DHT22;2039;50.894;6.888;2023-08-07T12:08:41;21.20;1.00
4050;DHT22;2039;50.894;6.888;2023-08-07T12:11:12;21.40;1.00
4050;DHT22;2039;50.894;6.888;2023-08-07T12:13:39;21.60;1.00
4050;DHT22;2039;50.894;6.888;2023-08-07T12:16:05;21.60;1.00
4050;DHT22;2039;50.894;6.888;2023-08-07T12:18:32;21.70;1.00
4050;DHT22;2039;50.894;6.888;2023-08-07T12:21:00;21.60;1.00
4050;DHT22;2039;50.894;6.888;2023-08-07T12:23:26;21.20;1.00
4050;DHT22;2039;50.894;6.888;2023-08-07T12:25:52;21.30;1.00
4050;DHT22;2039;50.894;6.888;2023-08-07T12:28:18;21.50;1.00
4050;DHT22;2039;50.894;6.888;2023-08-07T12:30:47;21.60;1.00
4050;DHT22;2039;50.894;6.888;2023-08-07T12:33:13;21.60;1.00
4050;DHT22;2039;50.894;6.888;2023-08-07T12:35:40;21.50;1.00
4050;DHT22;2039;50.894;6.888;2023-08-07T12:38:07;21.30;1.00
4050;DHT22;2039;50.894;6.888;2023-08-07T12:40:33;20.90;1.00
4050;DHT22;2039;50.894;6.888;2023-08-07T12:43:02;20.70;1.00
4050;DHT22;2039;50.894;6.888;2023-08-07T12:45:27;20.70;1.00
4050;DHT22;2039;50.894;6.888;2023-08-07T12:47:53;20.50;1.00
4050;DHT22;2039;50.894;6.888;2023-08-07T12:50:19;20.60;1.00
4050;DHT22;2039;50.894;6.888;2023-08-07T12:52:44;20.70;1.00
4050;DHT22;2039;50.894;6.888;2023-08-07T12:55:10;20.70;1.00
4050;DHT22;2039;50.894;6.888;2023-08-07T12:57:38;21.00;1.00
4050;DHT22;2039;50.894;6.888;2023-08-07T13:00:04;21.10;1.00
4050;DHT22;2039;50.894;6.888;2023-08-07T13:02:30;21.00;1.00
4050;DHT22;2039;50.894;6.888;2023-08-07T13:04:55;20.80;1.00
4050;DHT22;2039;50.894;6.888;2023-08-07T13:07:22;20.80;1.00
4050;DHT22;2039;50.894;6.888;2023-08-07T13:09:48;20.40;1.00
4050;DHT22;2039;50.894;6.888;2023-08-07T13:12:14;20.40;1.00
4050;DHT22;2039;50.894;6.888;2023-08-07T13:14:39;20.50;1.00
4050;DHT22;2039;50.894;6.888;2023-08-07T13:17:05;20.40;1.00
4050;DHT22;2039;50.894;6.888;2023-08-07T13:19:31;20.30;1.00
4050;DHT22;2039;50.894;6.888;2023-08-07T13:21:56;20.10;1.00
4050;DHT22;2039;50.894;6.888;2023-08-07T13:24:22;20.00;1.00
4050;DHT22;2039;50.894;6.888;2023-08-07T13:26:47;19.70;1.00
4050;DHT22;2039;50.894;6.888;2023-08-07T13:29:14;19.60;1.00
4050;DHT22;2039;50.894;6.888;2023-08-07T13:31:40;19.90;1.00
4050;DHT22;2039;50.894;6.888;2023-08-07T13:34:12;20.00;1.00
4050;DHT22;2039;50.894;6.888;2023-08-07T13:36:38;20.10;1.00
4050;DHT22;2039;50.894;6.888;2023-08-07T13:39:04;19.90;1.00
4050;DHT22;2039;50.894;6.888;2023-08-07T13:41:32;19.70;1.00
4050;DHT22;2039;50.894;6.888;2023-08-07T13:44:00;19.60;1.00
4050;DHT22;2039;50.894;6.888;2023-08-07T13:46:26;19.60;1.00
4050;DHT22;2039;50.894;6.888;2023-08-07T13:48:52;19.90;1.00
4050;DHT22;2039;50.894;6.888;2023-08-07T13:51:19;20.00;1.00
4050;DHT22;2039;50.894;6.888;2023-08-07T13:53:44;19.90;1.00
4050;DHT22;2039;50.894;6.888;2023-08-07T13:56:10;19.60;1.00
4050;DHT22;2039;50.894;6.888;2023-08-07T13:58:39;19.40;1.00
4050;DHT22;2039;50.894;6.888;2023-08-07T14:01:07;19.10;1.00
4050;DHT22;2039;50.894;6.888;2023-08-07T14:03:34;18.80;29.00
4050;DHT22;2039;50.894;6.888;2023-08-07T14:06:00;18.60;32.60
4050;DHT22;2039;50.894;6.888;2023-08-07T14:08:28;18.60;61.50
4050;DHT22;2039;50.894;6.888;2023-08-07T14:10:54;18.90;54.90
4050;DHT22;2039;50.894;6.888;2023-08-07T14:13:20;19.20;41.60
4050;DHT22;2039;50.894;6.888;2023-08-07T14:15:46;19.40;23.60
4050;DHT22;2039;50.894;6.888;2023-08-07T14:18:12;19.50;19.90
4050;DHT22;2039;50.894;6.888;2023-08-07T14:20:40;19.50;5.90
4050;DHT22;2039;50.894;6.888;2023-08-07T14:23:05;19.50;4.90
4050;DHT22;2039;50.894;6.888;2023-08-07T14:25:31;19.40;1.00
4050;DHT22;2039;50.894;6.888;2023-08-07T14:27:57;19.40;1.00
4050;DHT22;2039;50.894;6.888;2023-08-07T14:30:22;19.40;1.00
4050;DHT22;2039;50.894;6.888;2023-08-07T14:32:48;19.40;1.00
4050;DHT22;2039;50.894;6.888;2023-08-07T14:35:14;19.40;1.00
4050;DHT22;2039;50.894;6.888;2023-08-07T14:37:40;19.30;1.00
4050;DHT22;2039;50.894;6.888;2023-08-07T14:40:07;19.20;1.00
4050;DHT22;2039;50.894;6.888;2023-08-07T14:42:33;19.10;1.00
4050;DHT22;2039;50.894;6.888;2023-08-07T14:44:58;19.20;1.00
4050;DHT22;2039;50.894;6.888;2023-08-07T14:47:25;19.20;1.00
4050;DHT22;2039;50.894;6.888;2023-08-07T14:49:51;19.20;1.00
4050;DHT22;2039;50.894;6.888;2023-08-07T14:52:16;19.30;1.00
4050;DHT22;2039;50.894;6.888;2023-08-07T14:54:42;19.60;1.00
4050;DHT22;2039;50.894;6.888;2023-08-07T14:57:08;20.00;1.00
4050;DHT22;2039;50.894;6.888;2023-08-07T14:59:36;20.30;1.00
4050;DHT22;2039;50.894;6.888;2023-08-07T15:02:02;20.60;1.00
4050;DHT22;2039;50.894;6.888;2023-08-07T15:04:28;20.70;1.00
4050;DHT22;2039;50.894;6.888;2023-08-07T15:06:53;21.00;1.00
4050;DHT22;2039;50.894;6.888;2023-08-07T15:09:19;21.20;1.00
4050;DHT22;2039;50.894;6.888;2023-08-07T15:11:46;21.10;1.00
4050;DHT22;2039;50.894;6.888;2023-08-07T15:14:12;21.10;1.00
4050;DHT22;2039;50.894;6.888;2023-08-07T15:16:38;21.30;1.00
4050;DHT22;2039;50.894;6.888;2023-08-07T15:19:04;21.30;1.00
4050;DHT22;2039;50.894;6.888;2023-08-07T15:21:30;21.40;1.00
4050;DHT22;2039;50.894;6.888;2023-08-07T15:23:56;21.70;1.00
4050;DHT22;2039;50.894;6.888;2023-08-07T15:26:22;21.70;1.00
4050;DHT22;2039;50.894;6.888;2023-08-07T15:28:48;21.80;1.00
4050;DHT22;2039;50.894;6.888;2023-08-07T15:31:13;22.00;1.00
4050;DHT22;2039;50.894;6.888;2023-08-07T15:33:39;22.20;1.00
4050;DHT22;2039;50.894;6.888;2023-08-07T15:36:05;22.20;1.00
4050;DHT22;2039;50.894;6.888;2023-08-07T15:38:30;22.10;1.00
4050;DHT22;2039;50.894;6.888;2023-08-07T15:40:56;21.80;1.00
4050;DHT22;2039;50.894;6.888;2023-08-07T15:43:22;21.40;1.00
4050;DHT22;2039;50.894;6.888;2023-08-07T15:45:51;21.10;1.00
4050;DHT22;2039;50.894;6.888;2023-08-07T15:48:18;20.90;1.00
4050;DHT22;2039;50.894;6.888;2023-08-07T15:50:44;21.00;1.00
4050;DHT22;2039;50.894;6.888;2023-08-07T15:53:10;21.50;1.00
4050;DHT22;2039;50.894;6.888;2023-08-07T15:55:35;21.80;1.00
4050;DHT22;2039;50.894;6.888;2023-08-07T15:58:02;22.00;1.00
4050;DHT22;2039;50.894;6.888;2023-08-07T16:00:28;22.40;1.00
4050;DHT22;2039;50.894;6.888;2023-08-07T16:03:02;23.00;1.00
4050;DHT22;2039;50.894;6.888;2023-08-07T16:05:28;23.70;1.00
4050;DHT22;2039;50.894;6.888;2023-08-07T16:07:53;23.60;1.00
4050;DHT22;2039;50.894;6.888;2023-08-07T16:10:19;23.20;1.00